Flood From: 18-02-2018 10:00 Until: 19-02-2018 06:00 warning for: Flood Level: Yellow info button

Although rather usual in this region, locally or potentially dangerous phenomena are expected. (such as local winds, summer thunderstorms, rising streams or high waves) Be aware and pay attention to the latest weather updates, especially if you carry out activities exposed to weather or close to a stream or shoreline. 


Meteo18 Weather Cam more information Meteo18 Weather Cam


Thunder radar more information blitzortung!


Rain radar more information rain snow radar


Visit our other weather sites:

Template documentation
and downloads

And another site



Weather Underground History page Text

Daily Summary for May 15, 2017 Units:  English    Metric   Both
« Previous Day
Next Day »
Daily Weekly Monthly Yearly Custom
  High: Low: Average:
Temperature: TemperatureC °F 7.2 °F 15.9 °F
Dew Point: DewpointC °F 6.3 °F 9.8 °F
Humidity: Humidity % 41 % 70 %
Wind Speed: WindSpeedKMH mph 0.0 mph 0.9 mph
Wind Gust: WindSpeedGustKMH mph - -
Wind:- - South
Pressure: PressurehPa in 1027.7 in -
Precipitation: 0.0 in    
Historical Graphs
 
 
Tabular Data for May 15, 2017
Time Temperature Dew Point Pressure Wind Wind Speed Wind Gust Humidity Rainfall Rate (Hourly)
TemperatureC °F DewpointC °F PressurehPa in Calm     Humidity % HourlyPrecipMM in
00:02 10.9 °F 8.5 °F 1027.7 in Calm     85 % 0.0 in
00:07 10.7 °F 8.5 °F 1028.0 in Calm   1.6 mph 86 % 0.0 in
00:12 10.4 °F 8.3 °F 1028.0 in Calm   1.6 mph 87 % 0.0 in
00:17 10.4 °F 8.2 °F 1028.0 in Calm   1.6 mph 86 % 0.0 in
00:22 10.4 °F 8.2 °F 1028.0 in Calm   3.2 mph 86 % 0.0 in
00:32 10.4 °F 8.2 °F 1028.0 in Calm   3.2 mph 86 % 0.0 in
00:42 10.6 °F 8.0 °F 1028.0 in Calm     84 % 0.0 in
00:52 10.3 °F 7.9 °F 1028.0 in Calm     85 % 0.0 in
00:57 10.3 °F 8.1 °F 1028.0 in Calm     86 % 0.0 in
01:02 10.2 °F 8.1 °F 1028.0 in Calm     87 % 0.0 in
01:12 9.9 °F 7.8 °F 1028.0 in Calm     87 % 0.0 in
01:17 10.0 °F 8.1 °F 1028.3 in Calm     88 % 0.0 in
01:22 9.9 °F 8.0 °F 1028.0 in Calm     88 % 0.0 in
01:32 9.8 °F 7.9 °F 1028.0 in Calm     88 % 0.0 in
01:37 9.6 °F 7.7 °F 1028.0 in Calm     88 % 0.0 in
01:42 9.4 °F 7.7 °F 1028.0 in Calm     89 % 0.0 in
01:47 9.3 °F 7.6 °F 1028.3 in Calm     89 % 0.0 in
01:52 9.2 °F 7.6 °F 1028.3 in Calm     90 % 0.0 in
01:57 9.3 °F 7.7 °F 1028.3 in Calm     90 % 0.0 in
02:02 9.4 °F 7.7 °F 1028.3 in Calm     89 % 0.0 in
02:12 9.4 °F 7.7 °F 1028.3 in Calm     89 % 0.0 in
02:17 9.4 °F 7.7 °F 1028.3 in Calm     89 % 0.0 in
02:22 9.3 °F 7.4 °F 1028.3 in Calm     88 % 0.0 in
02:32 9.2 °F 7.5 °F 1028.3 in Calm     89 % 0.0 in
02:42 9.0 °F 7.4 °F 1028.3 in Calm     90 % 0.0 in
02:47 8.9 °F 7.3 °F 1028.3 in Calm     90 % 0.0 in
02:52 8.7 °F 7.2 °F 1028.3 in Calm     90 % 0.0 in
02:57 8.7 °F 7.2 °F 1028.3 in Calm     90 % 0.0 in
03:02 8.5 °F 7.0 °F 1028.3 in Calm     90 % 0.0 in
03:12 8.4 °F 7.2 °F 1028.7 in Calm     92 % 0.0 in
03:17 8.4 °F 7.2 °F 1028.7 in Calm     92 % 0.0 in
03:22 8.4 °F 7.2 °F 1028.7 in Calm     92 % 0.0 in
03:27 8.3 °F 7.1 °F 1028.7 in Calm     92 % 0.0 in
03:32 8.2 °F 7.0 °F 1028.7 in Calm     92 % 0.0 in
03:37 8.2 °F 7.0 °F 1028.7 in Calm     92 % 0.0 in
03:42 8.2 °F 7.0 °F 1028.7 in Calm     92 % 0.0 in
03:47 8.2 °F 7.1 °F 1028.7 in Calm     93 % 0.0 in
03:52 8.2 °F 7.1 °F 1028.7 in Calm     93 % 0.0 in
03:57 8.1 °F 6.9 °F 1028.7 in Calm     92 % 0.0 in
04:02 8.1 °F 7.0 °F 1028.7 in Calm     93 % 0.0 in
04:07 8.1 °F 6.9 °F 1028.7 in Calm     92 % 0.0 in
04:12 8.0 °F 6.9 °F 1028.7 in Calm     93 % 0.0 in
04:17 8.0 °F 6.9 °F 1028.7 in Calm     93 % 0.0 in
04:22 8.1 °F 7.0 °F 1028.7 in Calm     93 % 0.0 in
04:27 8.0 °F 6.9 °F 1028.7 in Calm     93 % 0.0 in
04:32 8.0 °F 6.9 °F 1028.7 in Calm     93 % 0.0 in
04:37 8.1 °F 7.0 °F 1029.0 in Calm     93 % 0.0 in
04:42 8.1 °F 7.0 °F 1029.0 in Calm     93 % 0.0 in
04:47 7.9 °F 6.8 °F 1028.7 in Calm     93 % 0.0 in
04:52 7.9 °F 6.8 °F 1029.0 in Calm     93 % 0.0 in
05:02 7.8 °F 6.7 °F 1028.7 in Calm     93 % 0.0 in
05:12 7.6 °F 6.5 °F 1028.7 in Calm     93 % 0.0 in
05:17 7.6 °F 6.7 °F 1028.7 in Calm     94 % 0.0 in
05:22 7.6 °F 6.7 °F 1028.7 in Calm     94 % 0.0 in
05:32 7.4 °F 6.5 °F 1029.0 in Calm     94 % 0.0 in
05:37 7.5 °F 6.6 °F 1029.0 in Calm     94 % 0.0 in
05:42 7.5 °F 6.6 °F 1029.0 in Calm     94 % 0.0 in
05:47 7.6 °F 6.9 °F 1029.0 in Calm     95 % 0.0 in
05:52 7.7 °F 6.8 °F 1029.0 in Calm     94 % 0.0 in
06:02 7.7 °F 6.9 °F 1029.0 in Calm     95 % 0.0 in
06:12 7.6 °F 6.7 °F 1029.0 in Calm     94 % 0.0 in
06:17 7.6 °F 6.7 °F 1029.0 in Calm     94 % 0.0 in
06:22 7.4 °F 6.5 °F 1029.0 in Calm     94 % 0.0 in
06:27 7.3 °F 6.4 °F 1029.0 in Calm     94 % 0.0 in
06:32 7.4 °F 6.7 °F 1029.0 in Calm     95 % 0.0 in
06:37 7.4 °F 6.5 °F 1029.0 in Calm     94 % 0.0 in
06:42 7.4 °F 6.5 °F 1029.3 in Calm     94 % 0.0 in
06:47 7.3 °F 6.4 °F 1029.0 in Calm     94 % 0.0 in
06:52 7.3 °F 6.4 °F 1029.3 in Calm     94 % 0.0 in
06:57 7.2 °F 6.3 °F 1029.3 in Calm     94 % 0.0 in
07:02 7.3 °F 6.6 °F 1029.3 in Calm     95 % 0.0 in
07:12 7.6 °F 6.9 °F 1029.3 in Calm     95 % 0.0 in
07:17 7.6 °F 6.9 °F 1029.3 in Calm     95 % 0.0 in
07:27 7.8 °F 7.0 °F 1029.7 in Calm     95 % 0.0 in
07:32 8.1 °F 7.3 °F 1029.7 in Calm     95 % 0.0 in
07:37 8.3 °F 7.5 °F 1029.7 in Calm     95 % 0.0 in
07:42 8.5 °F 7.7 °F 1029.7 in Calm     95 % 0.0 in
07:47 8.7 °F 7.9 °F 1029.7 in Calm     95 % 0.0 in
07:52 8.8 °F 7.9 °F 1029.7 in Calm     94 % 0.0 in
07:57 9.1 °F 8.2 °F 1030.0 in Calm     94 % 0.0 in
08:02 9.3 °F 8.4 °F 1030.0 in Calm     94 % 0.0 in
08:12 10.1 °F 9.2 °F 1030.0 in Calm     94 % 0.0 in
08:17 10.4 °F 9.5 °F 1030.0 in Calm     94 % 0.0 in
08:22 10.7 °F 9.6 °F 1030.0 in Calm     93 % 0.0 in
08:32 11.8 °F 10.5 °F 1030.0 in Calm     92 % 0.0 in
08:37 12.3 °F 10.5 °F 1030.0 in Calm     89 % 0.0 in
08:42 12.9 °F 10.8 °F 1030.0 in Calm     87 % 0.0 in
08:47 13.5 °F 10.8 °F 1030.0 in Calm     84 % 0.0 in
08:52 13.3 °F 10.3 °F 1030.0 in Calm     82 % 0.0 in
08:57 13.1 °F 10.5 °F 1030.0 in Calm     84 % 0.0 in
09:02 13.4 °F 10.8 °F 1030.0 in Calm     84 % 0.0 in
09:12 14.0 °F 11.0 °F 1030.0 in Calm     82 % 0.0 in
09:17 14.4 °F 11.0 °F 1030.4 in Calm     80 % 0.0 in
09:22 14.5 °F 11.3 °F 1030.4 in Calm     81 % 0.0 in
09:27 14.7 °F 11.3 °F 1030.4 in SSW 1.6 mph 3.2 mph 80 % 0.0 in
09:32 14.9 °F 11.5 °F 1030.4 in South 1.6 mph 4.8 mph 80 % 0.0 in
09:37 15.1 °F 11.9 °F 1030.4 in South 1.6 mph 4.8 mph 81 % 0.0 in
09:42 15.4 °F 11.6 °F 1030.4 in Calm   4.8 mph 78 % 0.0 in
09:52 16.0 °F 11.8 °F 1030.4 in Calm   4.8 mph 76 % 0.0 in
10:02 16.8 °F 11.7 °F 1030.7 in Calm   4.8 mph 72 % 0.0 in
10:12 16.9 °F 11.2 °F 1030.7 in SSW 1.6 mph 3.2 mph 69 % 0.0 in
10:17 17.1 °F 11.8 °F 1030.7 in Calm   3.2 mph 71 % 0.0 in
10:22 17.4 °F 11.9 °F 1030.7 in South 1.6 mph 3.2 mph 70 % 0.0 in
10:32 17.9 °F 12.1 °F 1030.7 in SW 3.2 mph 3.2 mph 69 % 0.0 in
10:42 18.6 °F 11.7 °F 1030.7 in SW 4.8 mph 4.8 mph 64 % 0.0 in
10:47 18.7 °F 12.0 °F 1030.7 in SSW 1.6 mph 4.8 mph 65 % 0.0 in
10:52 19.0 °F 12.0 °F 1030.7 in SSW 3.2 mph 8.0 mph 64 % 0.0 in
10:57 18.9 °F 11.5 °F 1030.7 in SSE 3.2 mph 8.0 mph 62 % 0.0 in
11:02 18.7 °F 11.5 °F 1031.0 in SSE 1.6 mph 8.0 mph 63 % 0.0 in
11:12 18.7 °F 11.8 °F 1031.0 in SW 1.6 mph 9.7 mph 64 % 0.0 in
11:17 18.7 °F 11.0 °F 1031.0 in SW 1.6 mph 9.7 mph 61 % 0.0 in
11:22 18.8 °F 11.8 °F 1030.7 in ESE 4.8 mph 8.0 mph 64 % 0.0 in
11:32 18.9 °F 11.9 °F 1031.0 in SSW 4.8 mph 8.0 mph 64 % 0.0 in
11:42 19.0 °F 12.3 °F 1031.0 in East 4.8 mph 6.4 mph 65 % 0.0 in
11:52 19.3 °F 11.8 °F 1030.7 in SE 3.2 mph 6.4 mph 62 % 0.0 in
11:57 19.4 °F 11.4 °F 1030.7 in South 1.6 mph 6.4 mph 60 % 0.0 in
12:02 19.5 °F 11.5 °F 1030.7 in SE 1.6 mph 8.0 mph 60 % 0.0 in
12:12 19.8 °F 12.1 °F 1030.7 in ESE 4.8 mph 9.7 mph 61 % 0.0 in
12:17 20.2 °F 11.1 °F 1030.7 in SSE 3.2 mph 9.7 mph 56 % 0.0 in
12:22 20.2 °F 10.3 °F 1030.7 in SSW 1.6 mph 8.0 mph 53 % 0.0 in
12:27 20.4 °F 11.3 °F 1030.7 in SW 6.4 mph 8.0 mph 56 % 0.0 in
12:32 20.4 °F 11.6 °F 1030.7 in SW 4.8 mph 6.4 mph 57 % 0.0 in
12:37 20.6 °F 11.2 °F 1030.7 in ESE 4.8 mph 8.0 mph 55 % 0.0 in
12:42 20.8 °F 11.4 °F 1030.7 in Calm   8.0 mph 55 % 0.0 in
12:52 20.7 °F 11.3 °F 1030.7 in SE 1.6 mph 11.3 mph 55 % 0.0 in
12:57 20.6 °F 12.3 °F 1030.7 in SE 1.6 mph 11.3 mph 59 % 0.0 in
13:02 20.8 °F 12.2 °F 1030.7 in ENE 1.6 mph 11.3 mph 58 % 0.0 in
13:12 20.8 °F 11.2 °F 1030.7 in SSW 4.8 mph 11.3 mph 54 % 0.0 in
13:17 20.8 °F 11.2 °F 1030.7 in SE 1.6 mph 11.3 mph 54 % 0.0 in
13:22 20.7 °F 11.3 °F 1030.4 in East 3.2 mph 11.3 mph 55 % 0.0 in
13:32 21.1 °F 12.2 °F 1030.4 in Calm   9.7 mph 57 % 0.0 in
13:37 21.4 °F 11.7 °F 1030.4 in NE 3.2 mph 9.7 mph 54 % 0.0 in
13:42 21.2 °F 11.0 °F 1030.4 in ENE 3.2 mph 8.0 mph 52 % 0.0 in
13:47 21.2 °F 11.2 °F 1030.4 in ENE 6.4 mph 8.0 mph 53 % 0.0 in
13:52 21.3 °F 11.0 °F 1030.4 in ESE 4.8 mph 6.4 mph 52 % 0.0 in
13:57 21.8 °F 12.1 °F 1030.4 in ENE 4.8 mph 8.0 mph 54 % 0.0 in
14:02 21.7 °F 11.1 °F 1030.4 in SW 1.6 mph 8.0 mph 51 % 0.0 in
14:12 21.5 °F 11.2 °F 1030.4 in East 3.2 mph 8.0 mph 52 % 0.0 in
14:17 22.0 °F 10.8 °F 1030.4 in Calm   8.0 mph 49 % 0.0 in
14:22 22.4 °F 10.8 °F 1030.4 in Calm   8.0 mph 48 % 0.0 in
14:27 22.6 °F 11.3 °F 1030.4 in WSW 3.2 mph 8.0 mph 49 % 0.0 in
14:32 22.4 °F 11.2 °F 1030.4 in ESE 1.6 mph 6.4 mph 49 % 0.0 in
14:37 22.7 °F 11.1 °F 1030.4 in SW 3.2 mph 6.4 mph 48 % 0.0 in
14:42 22.8 °F 11.5 °F 1030.4 in SE 1.6 mph 8.0 mph 49 % 0.0 in
14:47 23.1 °F 10.8 °F 1030.4 in ESE 3.2 mph 8.0 mph 46 % 0.0 in
14:52 23.0 °F 10.8 °F 1030.0 in East 1.6 mph 8.0 mph 46 % 0.0 in
14:57 23.0 °F 11.1 °F 1030.4 in South 3.2 mph 8.0 mph 47 % 0.0 in
15:02 22.9 °F 9.3 °F 1030.0 in Calm   8.0 mph 42 % 0.0 in
15:12 22.4 °F 10.8 °F 1030.0 in South 4.8 mph 9.7 mph 48 % 0.0 in
15:17 22.7 °F 9.1 °F 1030.0 in Calm   9.7 mph 42 % 0.0 in
15:22 23.0 °F 9.4 °F 1030.0 in SSE 1.6 mph 8.0 mph 42 % 0.0 in
15:27 23.1 °F 9.8 °F 1030.0 in Calm   9.7 mph 43 % 0.0 in
15:32 22.8 °F 10.2 °F 1030.0 in SW 4.8 mph 9.7 mph 45 % 0.0 in
15:42 22.8 °F 11.2 °F 1029.7 in East 1.6 mph 8.0 mph 48 % 0.0 in
15:47 22.6 °F 10.4 °F 1030.0 in WSW 1.6 mph 9.7 mph 46 % 0.0 in
15:57 22.7 °F 11.7 °F 1029.7 in SSW 1.6 mph 9.7 mph 50 % 0.0 in
16:02 22.7 °F 10.8 °F 1029.7 in Calm   4.8 mph 47 % 0.0 in
16:12 23.1 °F 11.2 °F 1029.7 in ESE 3.2 mph 4.8 mph 47 % 0.0 in
16:17 23.4 °F 10.1 °F 1029.7 in Calm   4.8 mph 43 % 0.0 in
16:27 23.8 °F 10.5 °F 1029.3 in Calm   4.8 mph 43 % 0.0 in
16:32 23.7 °F 10.4 °F 1029.3 in SW 6.4 mph 6.4 mph 43 % 0.0 in
16:42 23.0 °F 10.4 °F 1029.3 in SW 3.2 mph 12.9 mph 45 % 0.0 in
16:52 23.4 °F 10.1 °F 1029.3 in Calm   8.0 mph 43 % 0.0 in
16:57 23.5 °F 9.8 °F 1029.3 in SE 1.6 mph 6.4 mph 42 % 0.0 in
17:02 23.6 °F 10.3 °F 1029.3 in Calm   6.4 mph 43 % 0.0 in
17:12 23.6 °F 9.9 °F 1029.0 in Calm   8.0 mph 42 % 0.0 in
17:22 23.6 °F 10.3 °F 1029.0 in WSW 4.8 mph 8.0 mph 43 % 0.0 in
17:27 23.5 °F 10.5 °F 1029.0 in SSW 3.2 mph 8.0 mph 44 % 0.0 in
17:32 23.6 °F 10.6 °F 1029.0 in Calm   9.7 mph 44 % 0.0 in
17:37 23.8 °F 10.8 °F 1029.0 in SE 1.6 mph 9.7 mph 44 % 0.0 in
17:42 23.9 °F 10.9 °F 1029.0 in South 1.6 mph 6.4 mph 44 % 0.0 in
17:52 23.6 °F 11.6 °F 1028.7 in SW 1.6 mph 8.0 mph 47 % 0.0 in
17:57 23.9 °F 12.2 °F 1028.7 in SSE 1.6 mph 8.0 mph 48 % 0.0 in
18:07 24.4 °F 11.7 °F 1028.7 in Calm   4.8 mph 45 % 0.0 in
18:12 24.4 °F 11.4 °F 1028.7 in Calm   4.8 mph 44 % 0.0 in
18:17 24.7 °F 10.9 °F 1028.7 in SW 1.6 mph 4.8 mph 42 % 0.0 in
18:22 24.4 °F 11.0 °F 1028.7 in Calm   1.6 mph 43 % 0.0 in
18:32 24.4 °F 11.4 °F 1028.7 in Calm   4.8 mph 44 % 0.0 in
18:37 24.7 °F 11.6 °F 1028.7 in Calm   4.8 mph 44 % 0.0 in
18:42 24.6 °F 11.5 °F 1028.7 in Calm   3.2 mph 44 % 0.0 in
18:52 24.1 °F 11.1 °F 1028.7 in East 3.2 mph 3.2 mph 44 % 0.0 in
19:02 24.6 °F 11.5 °F 1028.7 in Calm   3.2 mph 44 % 0.0 in
19:12 24.7 °F 10.9 °F 1028.7 in Calm   3.2 mph 42 % 0.0 in
19:22 25.2 °F 11.0 °F 1028.7 in Calm   1.6 mph 41 % 0.0 in
19:32 24.9 °F 10.7 °F 1028.7 in Calm   3.2 mph 41 % 0.0 in
19:37 24.8 °F 11.0 °F 1028.7 in Calm   3.2 mph 42 % 0.0 in
19:42 24.2 °F 10.8 °F 1028.7 in Calm   3.2 mph 43 % 0.0 in
19:52 23.7 °F 10.7 °F 1028.7 in Calm     44 % 0.0 in
19:57 23.9 °F 12.2 °F 1028.7 in Calm     48 % 0.0 in
20:02 24.2 °F 11.8 °F 1028.7 in Calm     46 % 0.0 in
20:07 24.1 °F 12.1 °F 1028.7 in Calm     47 % 0.0 in
20:12 23.8 °F 12.8 °F 1028.7 in Calm     50 % 0.0 in
20:17 23.6 °F 13.7 °F 1028.7 in Calm     54 % 0.0 in
20:22 23.4 °F 11.8 °F 1028.7 in Calm     48 % 0.0 in
20:27 22.7 °F 10.8 °F 1028.7 in Calm     47 % 0.0 in
20:32 22.6 °F 11.3 °F 1028.7 in Calm     49 % 0.0 in
20:37 22.9 °F 11.6 °F 1028.7 in Calm     49 % 0.0 in
20:42 23.2 °F 12.5 °F 1028.7 in Calm     51 % 0.0 in
20:47 22.9 °F 12.5 °F 1028.7 in Calm     52 % 0.0 in
20:52 22.1 °F 11.5 °F 1028.7 in Calm     51 % 0.0 in
20:57 21.6 °F 11.3 °F 1028.7 in Calm     52 % 0.0 in
21:02 21.3 °F 11.9 °F 1028.7 in Calm     55 % 0.0 in
21:12 20.4 °F 11.6 °F 1028.7 in Calm     57 % 0.0 in
21:17 20.0 °F 11.5 °F 1028.7 in Calm     58 % 0.0 in
21:22 19.7 °F 12.0 °F 1028.7 in Calm     61 % 0.0 in
21:32 19.3 °F 11.8 °F 1029.0 in Calm     62 % 0.0 in
21:37 19.1 °F 11.9 °F 1029.0 in Calm     63 % 0.0 in
21:42 18.8 °F 12.5 °F 1029.0 in Calm     67 % 0.0 in
21:52 18.1 °F 12.3 °F 1029.3 in Calm     69 % 0.0 in
22:02 17.8 °F 13.1 °F 1029.3 in Calm     74 % 0.0 in
22:12 17.2 °F 12.7 °F 1029.3 in Calm     75 % 0.0 in
22:17 17.1 °F 12.6 °F 1029.3 in Calm     75 % 0.0 in
22:22 16.9 °F 12.2 °F 1029.3 in Calm     74 % 0.0 in
22:32 16.9 °F 12.0 °F 1029.3 in Calm   1.6 mph 73 % 0.0 in
22:37 16.9 °F 12.0 °F 1029.3 in NNW 3.2 mph 3.2 mph 73 % 0.0 in
22:42 16.9 °F 12.0 °F 1029.3 in Calm   3.2 mph 73 % 0.0 in
22:47 16.7 °F 12.0 °F 1029.3 in NNW 1.6 mph 3.2 mph 74 % 0.0 in
22:52 16.6 °F 11.7 °F 1029.3 in Calm   3.2 mph 73 % 0.0 in
22:57 16.3 °F 11.9 °F 1029.3 in NW 1.6 mph 1.6 mph 75 % 0.0 in
23:02 16.3 °F 11.7 °F 1029.3 in NW 1.6 mph 1.6 mph 74 % 0.0 in
23:12 16.3 °F 11.7 °F 1029.3 in NW 1.6 mph 1.6 mph 74 % 0.0 in
23:17 16.1 °F 11.5 °F 1029.3 in Calm   1.6 mph 74 % 0.0 in
23:22 15.8 °F 11.6 °F 1029.3 in Calm   1.6 mph 76 % 0.0 in
23:32 15.3 °F 11.3 °F 1029.3 in Calm     77 % 0.0 in
23:37 15.5 °F 11.5 °F 1029.3 in Calm     77 % 0.0 in
23:42 15.6 °F 11.4 °F 1029.3 in Calm   1.6 mph 76 % 0.0 in
23:52 15.4 °F 11.2 °F 1029.3 in NW 1.6 mph 3.2 mph 76 % 0.0 in
23:57 15.4 °F 11.4 °F 1029.3 in Calm   3.2 mph 77 % 0.0 in
Meteo18
Compliments of Weather Underground - 4 mb

Script developed by  Jim McMurry - jmcmurry@mwt.net Adapted for the template by  Wim van der Kuil - Leuven-Template.eu

You find our weather info also at:

European Weather Network

Weather Underground

Equipment we use:

Weather-station
Davis Vue

Weather-program
Meteobridge

Weather-server
Raspberry PI 2 B+

Provider
1 and 1

Davis Vue

Meteobridge

Raspberry PI 2 B+

1 and 1